sensor_id;sensor_type;location;lat;lon;timestamp;temperature;humidity
28484;DHT22;15704;48.834;8.736;2023-04-25T00:02:10;6.70;99.90
28484;DHT22;15704;48.834;8.736;2023-04-25T00:04:37;6.70;99.90
28484;DHT22;15704;48.834;8.736;2023-04-25T00:07:04;6.60;99.90
28484;DHT22;15704;48.834;8.736;2023-04-25T00:09:32;6.60;99.90
28484;DHT22;15704;48.834;8.736;2023-04-25T00:11:59;6.50;99.90
28484;DHT22;15704;48.834;8.736;2023-04-25T00:14:28;6.60;99.90
28484;DHT22;15704;48.834;8.736;2023-04-25T00:16:55;6.60;99.90
28484;DHT22;15704;48.834;8.736;2023-04-25T00:19:24;6.70;99.90
28484;DHT22;15704;48.834;8.736;2023-04-25T00:21:55;6.70;99.90
28484;DHT22;15704;48.834;8.736;2023-04-25T00:24:22;6.80;99.90
28484;DHT22;15704;48.834;8.736;2023-04-25T00:26:49;6.80;99.90
28484;DHT22;15704;48.834;8.736;2023-04-25T00:29:16;6.90;99.90
28484;DHT22;15704;48.834;8.736;2023-04-25T00:31:42;6.90;99.90
28484;DHT22;15704;48.834;8.736;2023-04-25T00:34:09;6.90;99.90
28484;DHT22;15704;48.834;8.736;2023-04-25T00:36:36;6.90;99.90
28484;DHT22;15704;48.834;8.736;2023-04-25T00:39:03;6.90;99.90
28484;DHT22;15704;48.834;8.736;2023-04-25T00:41:31;6.90;99.90
28484;DHT22;15704;48.834;8.736;2023-04-25T00:43:57;6.80;99.90
28484;DHT22;15704;48.834;8.736;2023-04-25T00:46:25;6.70;99.90
28484;DHT22;15704;48.834;8.736;2023-04-25T00:48:52;6.70;99.90
28484;DHT22;15704;48.834;8.736;2023-04-25T00:51:20;6.50;99.90
28484;DHT22;15704;48.834;8.736;2023-04-25T00:53:49;6.50;99.90
28484;DHT22;15704;48.834;8.736;2023-04-25T00:56:17;6.40;99.90
28484;DHT22;15704;48.834;8.736;2023-04-25T00:58:44;6.40;99.90
28484;DHT22;15704;48.834;8.736;2023-04-25T01:04:10;6.40;99.90
28484;DHT22;15704;48.834;8.736;2023-04-25T01:06:37;6.30;99.90
28484;DHT22;15704;48.834;8.736;2023-04-25T01:09:04;6.30;99.90
28484;DHT22;15704;48.834;8.736;2023-04-25T01:11:32;6.40;99.90
28484;DHT22;15704;48.834;8.736;2023-04-25T01:13:58;6.40;99.90
28484;DHT22;15704;48.834;8.736;2023-04-25T01:16:25;6.50;99.90
28484;DHT22;15704;48.834;8.736;2023-04-25T01:18:56;6.50;99.90
28484;DHT22;15704;48.834;8.736;2023-04-25T01:21:26;6.60;99.90
28484;DHT22;15704;48.834;8.736;2023-04-25T01:23:54;6.70;99.90
28484;DHT22;15704;48.834;8.736;2023-04-25T01:26:21;6.70;99.90
28484;DHT22;15704;48.834;8.736;2023-04-25T01:28:49;6.80;99.90
28484;DHT22;15704;48.834;8.736;2023-04-25T01:31:16;6.80;99.90
28484;DHT22;15704;48.834;8.736;2023-04-25T01:33:45;6.80;99.90
28484;DHT22;15704;48.834;8.736;2023-04-25T01:36:13;6.80;99.90
28484;DHT22;15704;48.834;8.736;2023-04-25T01:38:41;6.80;99.90
28484;DHT22;15704;48.834;8.736;2023-04-25T01:41:08;6.80;99.90
28484;DHT22;15704;48.834;8.736;2023-04-25T01:43:35;6.90;99.90
28484;DHT22;15704;48.834;8.736;2023-04-25T01:46:10;6.90;99.90
28484;DHT22;15704;48.834;8.736;2023-04-25T01:48:37;6.90;99.90
28484;DHT22;15704;48.834;8.736;2023-04-25T01:51:04;7.00;99.90
28484;DHT22;15704;48.834;8.736;2023-04-25T01:53:31;7.00;99.90
28484;DHT22;15704;48.834;8.736;2023-04-25T01:55:58;6.90;99.90
28484;DHT22;15704;48.834;8.736;2023-04-25T01:58:25;6.80;99.90
28484;DHT22;15704;48.834;8.736;2023-04-25T02:00:51;6.70;99.90
28484;DHT22;15704;48.834;8.736;2023-04-25T02:03:18;6.60;99.90
28484;DHT22;15704;48.834;8.736;2023-04-25T02:05:45;6.60;99.90
28484;DHT22;15704;48.834;8.736;2023-04-25T02:08:19;6.60;99.90
28484;DHT22;15704;48.834;8.736;2023-04-25T02:10:46;6.50;99.90
28484;DHT22;15704;48.834;8.736;2023-04-25T02:13:13;6.50;99.90
28484;DHT22;15704;48.834;8.736;2023-04-25T02:15:40;6.50;99.90
28484;DHT22;15704;48.834;8.736;2023-04-25T02:18:07;6.50;99.90
28484;DHT22;15704;48.834;8.736;2023-04-25T02:20:43;6.40;99.90
28484;DHT22;15704;48.834;8.736;2023-04-25T02:23:16;6.40;99.90
28484;DHT22;15704;48.834;8.736;2023-04-25T02:25:43;6.20;99.90
28484;DHT22;15704;48.834;8.736;2023-04-25T02:28:09;6.30;99.90
28484;DHT22;15704;48.834;8.736;2023-04-25T02:30:37;6.20;99.90
28484;DHT22;15704;48.834;8.736;2023-04-25T02:33:04;6.30;99.90
28484;DHT22;15704;48.834;8.736;2023-04-25T02:35:31;6.30;99.90
28484;DHT22;15704;48.834;8.736;2023-04-25T02:37:58;6.40;99.90
28484;DHT22;15704;48.834;8.736;2023-04-25T02:40:24;6.40;99.90
28484;DHT22;15704;48.834;8.736;2023-04-25T02:42:51;6.40;99.90
28484;DHT22;15704;48.834;8.736;2023-04-25T02:45:18;6.40;99.90
28484;DHT22;15704;48.834;8.736;2023-04-25T02:47:45;6.40;99.90
28484;DHT22;15704;48.834;8.736;2023-04-25T02:50:11;6.30;99.90
28484;DHT22;15704;48.834;8.736;2023-04-25T02:52:38;6.20;99.90
28484;DHT22;15704;48.834;8.736;2023-04-25T02:55:05;6.20;99.90
28484;DHT22;15704;48.834;8.736;2023-04-25T02:57:32;6.30;99.90
28484;DHT22;15704;48.834;8.736;2023-04-25T02:59:59;6.30;99.90
28484;DHT22;15704;48.834;8.736;2023-04-25T03:02:25;6.20;99.90
28484;DHT22;15704;48.834;8.736;2023-04-25T03:04:52;6.30;99.90
28484;DHT22;15704;48.834;8.736;2023-04-25T03:07:20;6.30;99.90
28484;DHT22;15704;48.834;8.736;2023-04-25T03:09:46;6.30;99.90
28484;DHT22;15704;48.834;8.736;2023-04-25T03:12:13;6.40;99.90
28484;DHT22;15704;48.834;8.736;2023-04-25T03:14:40;6.40;99.90
28484;DHT22;15704;48.834;8.736;2023-04-25T03:17:15;6.40;99.90
28484;DHT22;15704;48.834;8.736;2023-04-25T03:19:42;6.40;99.90
28484;DHT22;15704;48.834;8.736;2023-04-25T03:22:09;6.50;99.90
28484;DHT22;15704;48.834;8.736;2023-04-25T03:24:35;6.30;99.90
28484;DHT22;15704;48.834;8.736;2023-04-25T03:27:03;6.30;99.90
28484;DHT22;15704;48.834;8.736;2023-04-25T03:29:30;6.30;99.90
28484;DHT22;15704;48.834;8.736;2023-04-25T03:31:57;6.30;99.90
28484;DHT22;15704;48.834;8.736;2023-04-25T03:34:38;6.30;99.90
28484;DHT22;15704;48.834;8.736;2023-04-25T03:37:07;6.20;99.90
28484;DHT22;15704;48.834;8.736;2023-04-25T03:39:34;6.30;99.90
28484;DHT22;15704;48.834;8.736;2023-04-25T03:42:01;6.30;99.90
28484;DHT22;15704;48.834;8.736;2023-04-25T03:44:29;6.40;99.90
28484;DHT22;15704;48.834;8.736;2023-04-25T03:46:56;6.40;99.90
28484;DHT22;15704;48.834;8.736;2023-04-25T03:49:23;6.40;99.90
28484;DHT22;15704;48.834;8.736;2023-04-25T03:51:49;6.30;99.90
28484;DHT22;15704;48.834;8.736;2023-04-25T03:54:16;6.20;99.90
28484;DHT22;15704;48.834;8.736;2023-04-25T03:56:53;6.20;99.90
28484;DHT22;15704;48.834;8.736;2023-04-25T03:59:26;6.10;99.90
28484;DHT22;15704;48.834;8.736;2023-04-25T04:01:52;6.10;99.90
28484;DHT22;15704;48.834;8.736;2023-04-25T04:04:19;6.10;99.90
28484;DHT22;15704;48.834;8.736;2023-04-25T04:06:46;6.10;99.90
28484;DHT22;15704;48.834;8.736;2023-04-25T04:09:13;6.20;99.90
28484;DHT22;15704;48.834;8.736;2023-04-25T04:11:40;6.20;99.90
28484;DHT22;15704;48.834;8.736;2023-04-25T04:14:07;6.10;99.90
28484;DHT22;15704;48.834;8.736;2023-04-25T04:16:34;6.20;99.90
28484;DHT22;15704;48.834;8.736;2023-04-25T04:19:03;6.20;99.90
28484;DHT22;15704;48.834;8.736;2023-04-25T04:21:30;6.20;99.90
28484;DHT22;15704;48.834;8.736;2023-04-25T04:23:56;6.20;99.90
28484;DHT22;15704;48.834;8.736;2023-04-25T04:26:24;6.30;99.90
28484;DHT22;15704;48.834;8.736;2023-04-25T04:28:52;6.30;99.90
28484;DHT22;15704;48.834;8.736;2023-04-25T04:31:21;6.30;99.90
28484;DHT22;15704;48.834;8.736;2023-04-25T04:33:48;6.30;99.90
28484;DHT22;15704;48.834;8.736;2023-04-25T04:36:15;6.30;99.90
28484;DHT22;15704;48.834;8.736;2023-04-25T04:38:42;6.30;99.90
28484;DHT22;15704;48.834;8.736;2023-04-25T04:41:09;6.20;99.90
28484;DHT22;15704;48.834;8.736;2023-04-25T04:43:36;6.10;99.90
28484;DHT22;15704;48.834;8.736;2023-04-25T04:46:03;6.00;99.90
28484;DHT22;15704;48.834;8.736;2023-04-25T04:48:34;5.90;99.90
28484;DHT22;15704;48.834;8.736;2023-04-25T04:51:01;5.80;99.90
28484;DHT22;15704;48.834;8.736;2023-04-25T04:53:27;5.70;99.90
28484;DHT22;15704;48.834;8.736;2023-04-25T04:55:54;5.70;99.90
28484;DHT22;15704;48.834;8.736;2023-04-25T04:58:21;5.60;99.90
28484;DHT22;15704;48.834;8.736;2023-04-25T05:00:48;5.60;99.90
28484;DHT22;15704;48.834;8.736;2023-04-25T05:03:15;5.60;99.90
28484;DHT22;15704;48.834;8.736;2023-04-25T05:05:43;5.60;99.90
28484;DHT22;15704;48.834;8.736;2023-04-25T05:08:09;5.70;99.90
28484;DHT22;15704;48.834;8.736;2023-04-25T05:10:36;5.80;99.90
28484;DHT22;15704;48.834;8.736;2023-04-25T05:13:03;5.80;99.90
28484;DHT22;15704;48.834;8.736;2023-04-25T05:15:30;5.90;99.90
28484;DHT22;15704;48.834;8.736;2023-04-25T05:17:57;6.00;99.90
28484;DHT22;15704;48.834;8.736;2023-04-25T05:20:24;6.20;99.90
28484;DHT22;15704;48.834;8.736;2023-04-25T05:22:50;6.20;99.90
28484;DHT22;15704;48.834;8.736;2023-04-25T05:25:17;6.30;99.90
28484;DHT22;15704;48.834;8.736;2023-04-25T05:27:47;6.40;99.90
28484;DHT22;15704;48.834;8.736;2023-04-25T05:30:14;6.50;99.90
28484;DHT22;15704;48.834;8.736;2023-04-25T05:32:40;6.50;99.90
28484;DHT22;15704;48.834;8.736;2023-04-25T05:35:08;6.50;99.90
28484;DHT22;15704;48.834;8.736;2023-04-25T05:37:35;6.60;99.90
28484;DHT22;15704;48.834;8.736;2023-04-25T05:40:11;6.70;99.90
28484;DHT22;15704;48.834;8.736;2023-04-25T05:42:40;6.70;99.90
28484;DHT22;15704;48.834;8.736;2023-04-25T05:45:07;6.80;99.90
28484;DHT22;15704;48.834;8.736;2023-04-25T05:47:34;6.80;99.90
28484;DHT22;15704;48.834;8.736;2023-04-25T05:50:01;6.80;99.90
28484;DHT22;15704;48.834;8.736;2023-04-25T05:52:28;7.00;99.90
28484;DHT22;15704;48.834;8.736;2023-04-25T05:54:55;7.10;99.90
28484;DHT22;15704;48.834;8.736;2023-04-25T05:57:26;7.30;99.90
28484;DHT22;15704;48.834;8.736;2023-04-25T05:59:53;7.30;99.90
28484;DHT22;15704;48.834;8.736;2023-04-25T06:02:21;7.30;99.90
28484;DHT22;15704;48.834;8.736;2023-04-25T06:04:49;7.30;99.90
28484;DHT22;15704;48.834;8.736;2023-04-25T06:07:23;7.40;99.90
28484;DHT22;15704;48.834;8.736;2023-04-25T06:09:50;7.60;99.90
28484;DHT22;15704;48.834;8.736;2023-04-25T06:12:17;7.60;99.90
28484;DHT22;15704;48.834;8.736;2023-04-25T06:14:44;7.60;99.90
28484;DHT22;15704;48.834;8.736;2023-04-25T06:17:10;7.50;99.90
28484;DHT22;15704;48.834;8.736;2023-04-25T06:19:37;7.50;99.90
28484;DHT22;15704;48.834;8.736;2023-04-25T06:22:04;7.50;99.90
28484;DHT22;15704;48.834;8.736;2023-04-25T06:24:31;7.50;99.90
28484;DHT22;15704;48.834;8.736;2023-04-25T06:26:57;7.50;99.90
28484;DHT22;15704;48.834;8.736;2023-04-25T06:29:24;7.40;99.90
28484;DHT22;15704;48.834;8.736;2023-04-25T06:31:53;7.40;99.90
28484;DHT22;15704;48.834;8.736;2023-04-25T06:34:20;7.30;99.90
28484;DHT22;15704;48.834;8.736;2023-04-25T06:36:47;7.30;99.90
28484;DHT22;15704;48.834;8.736;2023-04-25T06:39:14;7.30;99.90
28484;DHT22;15704;48.834;8.736;2023-04-25T06:41:40;7.40;99.90
28484;DHT22;15704;48.834;8.736;2023-04-25T06:44:07;7.30;99.90
28484;DHT22;15704;48.834;8.736;2023-04-25T06:46:34;7.30;99.90
28484;DHT22;15704;48.834;8.736;2023-04-25T06:49:01;7.30;99.90
28484;DHT22;15704;48.834;8.736;2023-04-25T06:51:27;7.40;99.90
28484;DHT22;15704;48.834;8.736;2023-04-25T06:53:56;7.40;99.90
28484;DHT22;15704;48.834;8.736;2023-04-25T06:56:22;7.40;99.90
28484;DHT22;15704;48.834;8.736;2023-04-25T06:58:50;7.40;99.90
28484;DHT22;15704;48.834;8.736;2023-04-25T07:01:20;7.50;99.90
28484;DHT22;15704;48.834;8.736;2023-04-25T07:03:47;7.50;99.90
28484;DHT22;15704;48.834;8.736;2023-04-25T07:06:14;7.60;99.90
28484;DHT22;15704;48.834;8.736;2023-04-25T07:08:41;7.50;99.90
28484;DHT22;15704;48.834;8.736;2023-04-25T07:11:07;7.50;99.90
28484;DHT22;15704;48.834;8.736;2023-04-25T07:13:34;7.50;99.90
28484;DHT22;15704;48.834;8.736;2023-04-25T07:16:01;7.40;99.90
28484;DHT22;15704;48.834;8.736;2023-04-25T07:18:34;7.30;99.90
28484;DHT22;15704;48.834;8.736;2023-04-25T07:21:00;7.20;99.90
28484;DHT22;15704;48.834;8.736;2023-04-25T07:23:27;7.10;99.90
28484;DHT22;15704;48.834;8.736;2023-04-25T07:25:54;7.20;99.90
28484;DHT22;15704;48.834;8.736;2023-04-25T07:28:21;7.00;99.90
28484;DHT22;15704;48.834;8.736;2023-04-25T07:30:47;7.00;99.90
28484;DHT22;15704;48.834;8.736;2023-04-25T07:33:14;7.00;99.90
28484;DHT22;15704;48.834;8.736;2023-04-25T07:35:41;7.00;99.90
28484;DHT22;15704;48.834;8.736;2023-04-25T07:38:08;7.00;99.90
28484;DHT22;15704;48.834;8.736;2023-04-25T07:40:36;7.00;99.90
28484;DHT22;15704;48.834;8.736;2023-04-25T07:43:03;7.20;99.90
28484;DHT22;15704;48.834;8.736;2023-04-25T07:45:30;7.30;99.90
28484;DHT22;15704;48.834;8.736;2023-04-25T07:47:57;7.30;99.90
28484;DHT22;15704;48.834;8.736;2023-04-25T07:50:23;7.20;99.90
28484;DHT22;15704;48.834;8.736;2023-04-25T07:52:50;7.20;99.90
28484;DHT22;15704;48.834;8.736;2023-04-25T07:55:17;7.00;99.90
28484;DHT22;15704;48.834;8.736;2023-04-25T07:57:44;7.00;99.90
28484;DHT22;15704;48.834;8.736;2023-04-25T08:00:11;6.90;99.90
28484;DHT22;15704;48.834;8.736;2023-04-25T08:02:39;6.80;99.90
28484;DHT22;15704;48.834;8.736;2023-04-25T08:05:06;7.00;99.90
28484;DHT22;15704;48.834;8.736;2023-04-25T08:07:34;6.90;99.90
28484;DHT22;15704;48.834;8.736;2023-04-25T08:10:01;6.80;99.90
28484;DHT22;15704;48.834;8.736;2023-04-25T08:12:29;6.90;99.90
28484;DHT22;15704;48.834;8.736;2023-04-25T08:14:56;6.90;99.90
28484;DHT22;15704;48.834;8.736;2023-04-25T08:17:22;6.90;99.90
28484;DHT22;15704;48.834;8.736;2023-04-25T08:19:50;6.70;99.90
28484;DHT22;15704;48.834;8.736;2023-04-25T08:22:26;6.70;99.90
28484;DHT22;15704;48.834;8.736;2023-04-25T08:24:55;6.60;99.90
28484;DHT22;15704;48.834;8.736;2023-04-25T08:27:22;6.60;99.90
28484;DHT22;15704;48.834;8.736;2023-04-25T08:29:49;6.70;99.90
28484;DHT22;15704;48.834;8.736;2023-04-25T08:32:16;6.70;99.90
28484;DHT22;15704;48.834;8.736;2023-04-25T08:34:43;6.60;99.90
28484;DHT22;15704;48.834;8.736;2023-04-25T08:37:10;6.60;99.90
28484;DHT22;15704;48.834;8.736;2023-04-25T08:39:37;6.60;99.90
28484;DHT22;15704;48.834;8.736;2023-04-25T08:42:06;6.50;99.90
28484;DHT22;15704;48.834;8.736;2023-04-25T08:44:42;6.60;99.90
28484;DHT22;15704;48.834;8.736;2023-04-25T08:47:10;6.50;99.90
28484;DHT22;15704;48.834;8.736;2023-04-25T08:49:38;6.60;99.90
28484;DHT22;15704;48.834;8.736;2023-04-25T08:52:22;6.50;99.90
28484;DHT22;15704;48.834;8.736;2023-04-25T08:54:49;6.50;99.90
28484;DHT22;15704;48.834;8.736;2023-04-25T08:57:23;6.60;99.90
28484;DHT22;15704;48.834;8.736;2023-04-25T08:59:51;6.70;99.90
28484;DHT22;15704;48.834;8.736;2023-04-25T09:02:22;6.70;99.90
28484;DHT22;15704;48.834;8.736;2023-04-25T09:04:50;6.80;99.90
28484;DHT22;15704;48.834;8.736;2023-04-25T09:07:17;7.00;99.90
28484;DHT22;15704;48.834;8.736;2023-04-25T09:09:47;7.10;99.90
28484;DHT22;15704;48.834;8.736;2023-04-25T09:12:14;7.10;99.90
28484;DHT22;15704;48.834;8.736;2023-04-25T09:14:41;7.30;99.90
28484;DHT22;15704;48.834;8.736;2023-04-25T09:17:09;7.30;99.90
28484;DHT22;15704;48.834;8.736;2023-04-25T09:19:36;7.40;99.90
28484;DHT22;15704;48.834;8.736;2023-04-25T09:22:08;7.50;99.90
28484;DHT22;15704;48.834;8.736;2023-04-25T09:27:12;7.40;99.90
28484;DHT22;15704;48.834;8.736;2023-04-25T09:29:40;7.50;99.90
28484;DHT22;15704;48.834;8.736;2023-04-25T09:32:18;7.60;99.90
28484;DHT22;15704;48.834;8.736;2023-04-25T09:34:49;7.60;99.90
28484;DHT22;15704;48.834;8.736;2023-04-25T09:37:21;7.60;99.90
28484;DHT22;15704;48.834;8.736;2023-04-25T09:39:56;7.60;99.90
28484;DHT22;15704;48.834;8.736;2023-04-25T09:42:27;7.80;99.90
28484;DHT22;15704;48.834;8.736;2023-04-25T09:44:56;7.90;99.90
28484;DHT22;15704;48.834;8.736;2023-04-25T09:47:24;8.10;99.90
28484;DHT22;15704;48.834;8.736;2023-04-25T09:49:52;8.00;99.90
28484;DHT22;15704;48.834;8.736;2023-04-25T09:52:21;7.90;99.90
28484;DHT22;15704;48.834;8.736;2023-04-25T09:54:51;7.90;99.90
28484;DHT22;15704;48.834;8.736;2023-04-25T09:57:20;8.10;99.90
28484;DHT22;15704;48.834;8.736;2023-04-25T09:59:52;8.00;99.90
28484;DHT22;15704;48.834;8.736;2023-04-25T10:02:26;7.90;99.90
28484;DHT22;15704;48.834;8.736;2023-04-25T10:04:55;8.30;99.90
28484;DHT22;15704;48.834;8.736;2023-04-25T10:07:25;8.20;99.90
28484;DHT22;15704;48.834;8.736;2023-04-25T10:10:02;8.20;99.90
28484;DHT22;15704;48.834;8.736;2023-04-25T10:12:32;8.50;99.90
28484;DHT22;15704;48.834;8.736;2023-04-25T10:14:59;8.30;99.90
28484;DHT22;15704;48.834;8.736;2023-04-25T10:17:27;8.50;99.90
28484;DHT22;15704;48.834;8.736;2023-04-25T10:19:55;8.20;99.90
28484;DHT22;15704;48.834;8.736;2023-04-25T10:22:41;8.20;99.90
28484;DHT22;15704;48.834;8.736;2023-04-25T10:25:09;8.20;99.90
28484;DHT22;15704;48.834;8.736;2023-04-25T10:27:36;7.90;99.90
28484;DHT22;15704;48.834;8.736;2023-04-25T10:30:14;7.60;99.90
28484;DHT22;15704;48.834;8.736;2023-04-25T10:32:43;7.00;99.90
28484;DHT22;15704;48.834;8.736;2023-04-25T10:37:38;6.20;99.90
28484;DHT22;15704;48.834;8.736;2023-04-25T10:40:10;6.20;99.90
28484;DHT22;15704;48.834;8.736;2023-04-25T10:42:37;6.10;99.90
28484;DHT22;15704;48.834;8.736;2023-04-25T10:45:07;6.10;99.90
28484;DHT22;15704;48.834;8.736;2023-04-25T10:47:35;5.80;99.90
28484;DHT22;15704;48.834;8.736;2023-04-25T10:50:08;5.70;99.90
28484;DHT22;15704;48.834;8.736;2023-04-25T10:52:38;5.70;99.90
28484;DHT22;15704;48.834;8.736;2023-04-25T10:55:06;6.00;99.90
28484;DHT22;15704;48.834;8.736;2023-04-25T10:57:43;5.80;99.90
28484;DHT22;15704;48.834;8.736;2023-04-25T11:00:14;6.00;99.90
28484;DHT22;15704;48.834;8.736;2023-04-25T11:05:31;5.90;99.90
28484;DHT22;15704;48.834;8.736;2023-04-25T11:08:00;6.30;99.90
28484;DHT22;15704;48.834;8.736;2023-04-25T11:10:34;6.30;99.90
28484;DHT22;15704;48.834;8.736;2023-04-25T11:13:04;6.00;99.90
28484;DHT22;15704;48.834;8.736;2023-04-25T11:15:31;6.00;99.90
28484;DHT22;15704;48.834;8.736;2023-04-25T11:17:58;6.10;99.90
28484;DHT22;15704;48.834;8.736;2023-04-25T11:20:26;6.10;99.90
28484;DHT22;15704;48.834;8.736;2023-04-25T11:22:58;6.40;99.90
28484;DHT22;15704;48.834;8.736;2023-04-25T11:25:26;6.40;99.90
28484;DHT22;15704;48.834;8.736;2023-04-25T11:27:57;6.70;99.90
28484;DHT22;15704;48.834;8.736;2023-04-25T11:30:25;6.90;99.90
28484;DHT22;15704;48.834;8.736;2023-04-25T11:32:53;7.00;99.90
28484;DHT22;15704;48.834;8.736;2023-04-25T11:35:20;6.90;99.90
28484;DHT22;15704;48.834;8.736;2023-04-25T11:37:49;6.90;99.90
28484;DHT22;15704;48.834;8.736;2023-04-25T11:40:16;6.70;99.90
28484;DHT22;15704;48.834;8.736;2023-04-25T11:42:45;6.70;99.90
28484;DHT22;15704;48.834;8.736;2023-04-25T11:45:13;6.90;99.90
28484;DHT22;15704;48.834;8.736;2023-04-25T11:47:40;7.00;99.90
28484;DHT22;15704;48.834;8.736;2023-04-25T11:50:08;7.00;99.90
28484;DHT22;15704;48.834;8.736;2023-04-25T11:52:43;7.10;99.90
28484;DHT22;15704;48.834;8.736;2023-04-25T11:55:16;7.30;99.90
28484;DHT22;15704;48.834;8.736;2023-04-25T11:57:45;7.30;99.90
28484;DHT22;15704;48.834;8.736;2023-04-25T12:00:20;7.90;99.90
28484;DHT22;15704;48.834;8.736;2023-04-25T12:02:54;8.20;99.90
28484;DHT22;15704;48.834;8.736;2023-04-25T12:05:27;8.60;99.90
28484;DHT22;15704;48.834;8.736;2023-04-25T12:08:17;8.80;99.90
28484;DHT22;15704;48.834;8.736;2023-04-25T12:10:45;9.10;99.90
28484;DHT22;15704;48.834;8.736;2023-04-25T12:13:24;9.60;99.90
28484;DHT22;15704;48.834;8.736;2023-04-25T12:15:53;9.80;99.90
28484;DHT22;15704;48.834;8.736;2023-04-25T12:18:23;10.10;99.90
28484;DHT22;15704;48.834;8.736;2023-04-25T12:20:53;10.00;99.90
28484;DHT22;15704;48.834;8.736;2023-04-25T12:23:27;9.80;99.90
28484;DHT22;15704;48.834;8.736;2023-04-25T12:25:54;9.40;99.90
28484;DHT22;15704;48.834;8.736;2023-04-25T12:28:23;9.60;99.90
28484;DHT22;15704;48.834;8.736;2023-04-25T12:31:04;9.30;99.90
28484;DHT22;15704;48.834;8.736;2023-04-25T12:33:33;8.90;99.90
28484;DHT22;15704;48.834;8.736;2023-04-25T12:36:06;9.20;99.90
28484;DHT22;15704;48.834;8.736;2023-04-25T12:38:40;9.40;99.90
28484;DHT22;15704;48.834;8.736;2023-04-25T12:41:16;9.40;99.90
28484;DHT22;15704;48.834;8.736;2023-04-25T12:43:43;9.20;99.90
28484;DHT22;15704;48.834;8.736;2023-04-25T12:46:10;9.20;99.90
28484;DHT22;15704;48.834;8.736;2023-04-25T12:48:36;9.00;99.90
28484;DHT22;15704;48.834;8.736;2023-04-25T12:51:04;9.30;99.90
28484;DHT22;15704;48.834;8.736;2023-04-25T12:53:32;9.00;99.90
28484;DHT22;15704;48.834;8.736;2023-04-25T12:56:01;8.70;99.90
28484;DHT22;15704;48.834;8.736;2023-04-25T12:58:28;8.80;99.90
28484;DHT22;15704;48.834;8.736;2023-04-25T13:00:54;8.90;99.90
28484;DHT22;15704;48.834;8.736;2023-04-25T13:03:21;9.00;99.90
28484;DHT22;15704;48.834;8.736;2023-04-25T13:05:52;9.60;99.90
28484;DHT22;15704;48.834;8.736;2023-04-25T13:08:19;9.50;99.90
28484;DHT22;15704;48.834;8.736;2023-04-25T13:10:47;9.70;99.90
28484;DHT22;15704;48.834;8.736;2023-04-25T13:13:14;9.90;99.90
28484;DHT22;15704;48.834;8.736;2023-04-25T13:15:41;9.70;99.90
28484;DHT22;15704;48.834;8.736;2023-04-25T13:18:07;9.60;99.90
28484;DHT22;15704;48.834;8.736;2023-04-25T13:20:34;9.10;99.90
28484;DHT22;15704;48.834;8.736;2023-04-25T13:23:01;9.00;99.90
28484;DHT22;15704;48.834;8.736;2023-04-25T13:25:28;8.80;99.90
28484;DHT22;15704;48.834;8.736;2023-04-25T13:27:55;8.60;99.90
28484;DHT22;15704;48.834;8.736;2023-04-25T13:30:22;8.80;99.90
28484;DHT22;15704;48.834;8.736;2023-04-25T13:32:49;9.10;99.90
28484;DHT22;15704;48.834;8.736;2023-04-25T13:35:16;9.40;99.90
28484;DHT22;15704;48.834;8.736;2023-04-25T13:37:43;9.80;99.90
28484;DHT22;15704;48.834;8.736;2023-04-25T13:40:11;10.00;99.90
28484;DHT22;15704;48.834;8.736;2023-04-25T13:42:38;10.20;99.90
28484;DHT22;15704;48.834;8.736;2023-04-25T13:45:06;9.80;99.90
28484;DHT22;15704;48.834;8.736;2023-04-25T13:47:34;9.60;99.90
28484;DHT22;15704;48.834;8.736;2023-04-25T13:50:01;9.70;99.90
28484;DHT22;15704;48.834;8.736;2023-04-25T13:52:29;9.70;99.90
28484;DHT22;15704;48.834;8.736;2023-04-25T13:54:56;9.80;99.90
28484;DHT22;15704;48.834;8.736;2023-04-25T13:57:23;9.90;99.90
28484;DHT22;15704;48.834;8.736;2023-04-25T13:59:52;10.00;99.90
28484;DHT22;15704;48.834;8.736;2023-04-25T14:02:20;10.10;99.90
28484;DHT22;15704;48.834;8.736;2023-04-25T14:04:46;10.20;99.90
28484;DHT22;15704;48.834;8.736;2023-04-25T14:07:14;10.30;99.90
28484;DHT22;15704;48.834;8.736;2023-04-25T14:09:44;10.50;99.90
28484;DHT22;15704;48.834;8.736;2023-04-25T14:12:11;10.70;99.90
28484;DHT22;15704;48.834;8.736;2023-04-25T14:14:38;10.50;99.90
28484;DHT22;15704;48.834;8.736;2023-04-25T14:17:04;10.10;99.90
28484;DHT22;15704;48.834;8.736;2023-04-25T14:19:32;10.40;99.90
28484;DHT22;15704;48.834;8.736;2023-04-25T14:22:05;10.60;99.90
28484;DHT22;15704;48.834;8.736;2023-04-25T14:24:32;10.00;99.90
28484;DHT22;15704;48.834;8.736;2023-04-25T14:26:58;10.30;99.90
28484;DHT22;15704;48.834;8.736;2023-04-25T14:29:25;10.30;99.90
28484;DHT22;15704;48.834;8.736;2023-04-25T14:31:52;10.60;99.90
28484;DHT22;15704;48.834;8.736;2023-04-25T14:34:20;10.60;99.90
28484;DHT22;15704;48.834;8.736;2023-04-25T14:36:46;10.60;99.90
28484;DHT22;15704;48.834;8.736;2023-04-25T14:39:13;10.70;99.90
28484;DHT22;15704;48.834;8.736;2023-04-25T14:41:41;10.50;99.90
28484;DHT22;15704;48.834;8.736;2023-04-25T14:44:07;10.30;99.90
28484;DHT22;15704;48.834;8.736;2023-04-25T14:46:34;10.20;99.90
28484;DHT22;15704;48.834;8.736;2023-04-25T14:49:04;10.00;99.90
28484;DHT22;15704;48.834;8.736;2023-04-25T14:51:31;9.80;99.90
28484;DHT22;15704;48.834;8.736;2023-04-25T14:53:58;9.60;99.90
28484;DHT22;15704;48.834;8.736;2023-04-25T14:56:25;9.50;99.90
28484;DHT22;15704;48.834;8.736;2023-04-25T14:58:51;9.30;99.90
28484;DHT22;15704;48.834;8.736;2023-04-25T15:01:28;9.40;99.90
28484;DHT22;15704;48.834;8.736;2023-04-25T15:03:54;9.50;99.90
28484;DHT22;15704;48.834;8.736;2023-04-25T15:06:22;9.80;99.90
28484;DHT22;15704;48.834;8.736;2023-04-25T15:08:49;9.70;99.90
28484;DHT22;15704;48.834;8.736;2023-04-25T15:11:16;9.60;99.90
28484;DHT22;15704;48.834;8.736;2023-04-25T15:13:42;9.60;99.90
28484;DHT22;15704;48.834;8.736;2023-04-25T15:16:09;9.50;99.90
28484;DHT22;15704;48.834;8.736;2023-04-25T15:18:36;9.70;99.90
28484;DHT22;15704;48.834;8.736;2023-04-25T15:21:03;9.90;99.90
28484;DHT22;15704;48.834;8.736;2023-04-25T15:23:30;9.90;99.90
28484;DHT22;15704;48.834;8.736;2023-04-25T15:25:57;9.70;99.90
28484;DHT22;15704;48.834;8.736;2023-04-25T15:28:24;10.00;99.90
28484;DHT22;15704;48.834;8.736;2023-04-25T15:30:51;9.90;99.90
28484;DHT22;15704;48.834;8.736;2023-04-25T15:33:18;10.00;99.90
28484;DHT22;15704;48.834;8.736;2023-04-25T15:35:45;9.90;99.90
28484;DHT22;15704;48.834;8.736;2023-04-25T15:38:12;9.90;99.90
28484;DHT22;15704;48.834;8.736;2023-04-25T15:40:40;10.00;99.90
28484;DHT22;15704;48.834;8.736;2023-04-25T15:43:07;10.00;99.90
28484;DHT22;15704;48.834;8.736;2023-04-25T15:45:36;10.10;99.90
28484;DHT22;15704;48.834;8.736;2023-04-25T15:48:04;10.10;99.90
28484;DHT22;15704;48.834;8.736;2023-04-25T15:50:31;10.20;99.90
28484;DHT22;15704;48.834;8.736;2023-04-25T15:52:58;10.10;99.90
28484;DHT22;15704;48.834;8.736;2023-04-25T15:55:25;10.00;99.90
28484;DHT22;15704;48.834;8.736;2023-04-25T15:57:52;10.00;99.90
28484;DHT22;15704;48.834;8.736;2023-04-25T16:00:19;10.20;99.90
28484;DHT22;15704;48.834;8.736;2023-04-25T16:02:48;10.30;99.90